Cedar Valley, Utah
Current Conditions -  °F | °C
As of 6:59 PM on Saturday 20 Dec 2014 (Local Time) from KPVU Reporting Station
Broken Clouds Broken Clouds  
Wind Chill: 36°   Ceiling: 7500
Heat Index: 36°   Visibility: 15mi
Dew Point: 34°   Wind: 3mph
Humidity: 93%   Direction: NA
Pressure: 30.1"   Gusts: NA
Location:  40.29°N, 112.07°W
Report Text: KPVU 210159Z VRB03KT 15SM FEW030 SCT047 BKN075 02/01 A3010
Loading
Personal Weather Stations






























Interactive Weather Map New forecast layout! Learn more

10-Day Weather Forecast

Advertisements
Track Severe Weather on mobile